Skip Navigation Links
NOAA logo - Click to go to the NOAA homepage
NOAA's National Weather Service
Alaska Aviation Weather Unit
  NWS logo - Click to go to the NWS homepage
Left Navbar Graphic     21 AKDT = 05 GMT

   
NOAA is celebrating 200 years of science, service, and stewardship. Visit the NOAA 200th celebration Web site to learn more.
USA.gov is the U.S. Government's official Web portal to all Federal, state and local government Web resources and services.
Facebook
NWS on Facebook

AAWU Home :: Display TAF Add Bookmark
METAR PAWD 262353Z AUTO 19009KT 10SM FEW075 09/05 A2953 RMK AO2
 SLP999 T00890050 10089 20061 56003 TSNO=

METAR PAWD 270053Z AUTO 18009KT 10SM CLR 09/05 A2953 RMK AO2 SLP998
 T00890050 TSNO=

METAR PAWD 270153Z AUTO 19008KT 10SM CLR 09/05 A2953 RMK AO2 SLP998
 T00890050 TSNO=

METAR PAWD 270253Z AUTO 19010KT 10SM OVC060 08/04 A2953 RMK AO2
 SLP000 T00830044 53001 TSNO=

METAR PAWD 270353Z AUTO 18007KT 10SM OVC060 08/04 A2954 RMK AO2 SLP002
     T00830044 TSNO=

METAR PAWD 270453Z AUTO 14005KT 10SM OVC060 07/05 A2955 RMK AO2
 SLP007 T00720050 TSNO=


NOAA's National Weather Service
Alaska Aviation Weather Unit
6930 Sand Lake Road
Anchorage, AK 99502-1845
Disclaimer
Credits
Glossary
Privacy Policy
About Us
Career Opportunities
Contact AAWU Internet Services Site last modified: April, 17th 2012